sensor_id;sensor_type;location;lat;lon;timestamp;temperature;humidity
8008;DHT22;4049;49.468;11.200;2023-02-15T00:00:19;0.30;99.90
8008;DHT22;4049;49.468;11.200;2023-02-15T00:02:46;0.30;99.90
8008;DHT22;4049;49.468;11.200;2023-02-15T00:05:14;0.30;99.90
8008;DHT22;4049;49.468;11.200;2023-02-15T00:07:41;0.30;99.90
8008;DHT22;4049;49.468;11.200;2023-02-15T00:10:08;0.30;99.90
8008;DHT22;4049;49.468;11.200;2023-02-15T00:12:37;0.30;99.90
8008;DHT22;4049;49.468;11.200;2023-02-15T00:15:04;0.30;99.90
8008;DHT22;4049;49.468;11.200;2023-02-15T00:17:31;0.30;99.90
8008;DHT22;4049;49.468;11.200;2023-02-15T00:19:58;0.30;99.90
8008;DHT22;4049;49.468;11.200;2023-02-15T00:22:26;0.20;99.90
8008;DHT22;4049;49.468;11.200;2023-02-15T00:24:53;0.20;99.90
8008;DHT22;4049;49.468;11.200;2023-02-15T00:27:20;0.20;99.90
8008;DHT22;4049;49.468;11.200;2023-02-15T00:29:47;0.20;99.90
8008;DHT22;4049;49.468;11.200;2023-02-15T00:32:14;0.20;99.90
8008;DHT22;4049;49.468;11.200;2023-02-15T00:34:40;0.10;99.90
8008;DHT22;4049;49.468;11.200;2023-02-15T00:37:07;0.10;99.90
8008;DHT22;4049;49.468;11.200;2023-02-15T00:39:35;0.10;99.90
8008;DHT22;4049;49.468;11.200;2023-02-15T00:42:02;0.10;99.90
8008;DHT22;4049;49.468;11.200;2023-02-15T00:44:29;0.10;99.90
8008;DHT22;4049;49.468;11.200;2023-02-15T00:46:56;0.10;99.90
8008;DHT22;4049;49.468;11.200;2023-02-15T00:49:22;0.10;99.90
8008;DHT22;4049;49.468;11.200;2023-02-15T00:51:49;0.00;99.90
8008;DHT22;4049;49.468;11.200;2023-02-15T00:54:16;0.00;99.90
8008;DHT22;4049;49.468;11.200;2023-02-15T00:56:44;0.00;99.90
8008;DHT22;4049;49.468;11.200;2023-02-15T00:59:11;0.00;99.90
8008;DHT22;4049;49.468;11.200;2023-02-15T01:01:38;0.00;99.90
8008;DHT22;4049;49.468;11.200;2023-02-15T01:04:05;0.10;99.90
8008;DHT22;4049;49.468;11.200;2023-02-15T01:06:31;0.00;99.90
8008;DHT22;4049;49.468;11.200;2023-02-15T01:08:58;0.00;99.90
8008;DHT22;4049;49.468;11.200;2023-02-15T01:11:25;0.10;99.90
8008;DHT22;4049;49.468;11.200;2023-02-15T01:13:55;0.00;99.90
8008;DHT22;4049;49.468;11.200;2023-02-15T01:16:23;0.00;99.90
8008;DHT22;4049;49.468;11.200;2023-02-15T01:18:49;0.00;99.90
8008;DHT22;4049;49.468;11.200;2023-02-15T01:21:18;0.00;99.90
8008;DHT22;4049;49.468;11.200;2023-02-15T01:23:45;0.00;99.90
8008;DHT22;4049;49.468;11.200;2023-02-15T01:26:12;0.00;99.90
8008;DHT22;4049;49.468;11.200;2023-02-15T01:28:40;0.00;99.90
8008;DHT22;4049;49.468;11.200;2023-02-15T01:31:10;0.00;99.90
8008;DHT22;4049;49.468;11.200;2023-02-15T01:33:38;0.00;99.90
8008;DHT22;4049;49.468;11.200;2023-02-15T01:36:05;0.00;99.90
8008;DHT22;4049;49.468;11.200;2023-02-15T01:38:32;0.00;99.90
8008;DHT22;4049;49.468;11.200;2023-02-15T01:40:59;0.00;99.90
8008;DHT22;4049;49.468;11.200;2023-02-15T01:43:41;-0.10;99.90
8008;DHT22;4049;49.468;11.200;2023-02-15T01:46:10;-0.10;99.90
8008;DHT22;4049;49.468;11.200;2023-02-15T01:48:43;0.00;99.90
8008;DHT22;4049;49.468;11.200;2023-02-15T01:51:11;0.00;99.90
8008;DHT22;4049;49.468;11.200;2023-02-15T01:53:41;-0.10;99.90
8008;DHT22;4049;49.468;11.200;2023-02-15T01:56:11;-0.10;99.90
8008;DHT22;4049;49.468;11.200;2023-02-15T01:58:40;-0.10;99.90
8008;DHT22;4049;49.468;11.200;2023-02-15T02:01:10;-0.10;99.90
8008;DHT22;4049;49.468;11.200;2023-02-15T02:03:43;-0.10;99.90
8008;DHT22;4049;49.468;11.200;2023-02-15T02:06:12;-0.20;99.90
8008;DHT22;4049;49.468;11.200;2023-02-15T02:08:40;-0.20;99.90
8008;DHT22;4049;49.468;11.200;2023-02-15T02:11:10;-0.10;99.90
8008;DHT22;4049;49.468;11.200;2023-02-15T02:13:37;-0.20;99.90
8008;DHT22;4049;49.468;11.200;2023-02-15T02:16:10;-0.20;99.90
8008;DHT22;4049;49.468;11.200;2023-02-15T02:18:47;-0.20;99.90
8008;DHT22;4049;49.468;11.200;2023-02-15T02:27:33;-0.20;99.90
8008;DHT22;4049;49.468;11.200;2023-02-15T02:30:43;-0.20;99.90
8008;DHT22;4049;49.468;11.200;2023-02-15T02:33:36;-0.20;99.90
8008;DHT22;4049;49.468;11.200;2023-02-15T02:36:14;-0.20;99.90
8008;DHT22;4049;49.468;11.200;2023-02-15T02:38:52;-0.20;99.90
8008;DHT22;4049;49.468;11.200;2023-02-15T02:41:26;-0.20;99.90
8008;DHT22;4049;49.468;11.200;2023-02-15T02:44:04;-0.30;99.90
8008;DHT22;4049;49.468;11.200;2023-02-15T02:46:37;-0.30;99.90
8008;DHT22;4049;49.468;11.200;2023-02-15T02:49:07;-0.30;99.90
8008;DHT22;4049;49.468;11.200;2023-02-15T02:51:34;-0.30;99.90
8008;DHT22;4049;49.468;11.200;2023-02-15T02:54:05;-0.30;99.90
8008;DHT22;4049;49.468;11.200;2023-02-15T02:56:35;-0.40;99.90
8008;DHT22;4049;49.468;11.200;2023-02-15T02:59:06;-0.40;99.90
8008;DHT22;4049;49.468;11.200;2023-02-15T03:01:38;-0.40;99.90
8008;DHT22;4049;49.468;11.200;2023-02-15T03:04:10;-0.40;99.90
8008;DHT22;4049;49.468;11.200;2023-02-15T03:06:42;-0.40;99.90
8008;DHT22;4049;49.468;11.200;2023-02-15T03:09:17;-0.40;99.90
8008;DHT22;4049;49.468;11.200;2023-02-15T03:11:46;-0.40;99.90
8008;DHT22;4049;49.468;11.200;2023-02-15T03:14:16;-0.40;99.90
8008;DHT22;4049;49.468;11.200;2023-02-15T03:16:47;-0.40;99.90
8008;DHT22;4049;49.468;11.200;2023-02-15T03:19:19;-0.40;99.90
8008;DHT22;4049;49.468;11.200;2023-02-15T03:21:50;-0.40;99.90
8008;DHT22;4049;49.468;11.200;2023-02-15T03:24:33;-0.40;99.90
8008;DHT22;4049;49.468;11.200;2023-02-15T03:27:03;-0.40;99.90
8008;DHT22;4049;49.468;11.200;2023-02-15T03:29:31;-0.50;99.90
8008;DHT22;4049;49.468;11.200;2023-02-15T03:32:01;-0.50;99.90
8008;DHT22;4049;49.468;11.200;2023-02-15T03:34:30;-0.50;99.90
8008;DHT22;4049;49.468;11.200;2023-02-15T03:37:03;-0.60;99.90
8008;DHT22;4049;49.468;11.200;2023-02-15T03:39:34;-0.60;99.90
8008;DHT22;4049;49.468;11.200;2023-02-15T03:42:08;-0.70;99.90
8008;DHT22;4049;49.468;11.200;2023-02-15T03:44:43;-0.70;99.90
8008;DHT22;4049;49.468;11.200;2023-02-15T03:47:15;-0.70;99.90
8008;DHT22;4049;49.468;11.200;2023-02-15T03:49:47;-0.70;99.90
8008;DHT22;4049;49.468;11.200;2023-02-15T03:52:16;-0.70;99.90
8008;DHT22;4049;49.468;11.200;2023-02-15T03:54:43;-0.60;99.90
8008;DHT22;4049;49.468;11.200;2023-02-15T03:57:14;-0.60;99.90
8008;DHT22;4049;49.468;11.200;2023-02-15T04:00:00;-0.60;99.90
8008;DHT22;4049;49.468;11.200;2023-02-15T04:05:45;-0.60;99.90
8008;DHT22;4049;49.468;11.200;2023-02-15T04:08:12;-0.60;99.90
8008;DHT22;4049;49.468;11.200;2023-02-15T04:10:40;-0.60;99.90
8008;DHT22;4049;49.468;11.200;2023-02-15T04:13:18;-0.60;99.90
8008;DHT22;4049;49.468;11.200;2023-02-15T04:15:45;-0.60;99.90
8008;DHT22;4049;49.468;11.200;2023-02-15T04:18:32;-0.60;99.90
8008;DHT22;4049;49.468;11.200;2023-02-15T04:21:19;-0.60;99.90
8008;DHT22;4049;49.468;11.200;2023-02-15T04:24:04;-0.60;99.90
8008;DHT22;4049;49.468;11.200;2023-02-15T04:26:49;-0.60;99.90
8008;DHT22;4049;49.468;11.200;2023-02-15T04:29:18;-0.60;99.90
8008;DHT22;4049;49.468;11.200;2023-02-15T04:31:46;-0.60;99.90
8008;DHT22;4049;49.468;11.200;2023-02-15T04:34:13;-0.60;99.90
8008;DHT22;4049;49.468;11.200;2023-02-15T04:36:59;-0.60;99.90
8008;DHT22;4049;49.468;11.200;2023-02-15T04:39:26;-0.60;99.90
8008;DHT22;4049;49.468;11.200;2023-02-15T04:41:53;-0.70;99.90
8008;DHT22;4049;49.468;11.200;2023-02-15T04:44:36;-0.70;99.90
8008;DHT22;4049;49.468;11.200;2023-02-15T04:47:18;-0.70;99.90
8008;DHT22;4049;49.468;11.200;2023-02-15T04:49:45;-0.70;99.90
8008;DHT22;4049;49.468;11.200;2023-02-15T04:52:13;-0.70;99.90
8008;DHT22;4049;49.468;11.200;2023-02-15T04:54:40;-0.80;99.90
8008;DHT22;4049;49.468;11.200;2023-02-15T04:57:07;-0.80;99.90
8008;DHT22;4049;49.468;11.200;2023-02-15T04:59:34;-0.80;99.90
8008;DHT22;4049;49.468;11.200;2023-02-15T05:02:01;-0.80;99.90
8008;DHT22;4049;49.468;11.200;2023-02-15T05:04:28;-0.70;99.90
8008;DHT22;4049;49.468;11.200;2023-02-15T05:06:54;-0.70;99.90
8008;DHT22;4049;49.468;11.200;2023-02-15T05:09:23;-0.70;99.90
8008;DHT22;4049;49.468;11.200;2023-02-15T05:11:49;-0.70;99.90
8008;DHT22;4049;49.468;11.200;2023-02-15T05:14:16;-0.70;99.90
8008;DHT22;4049;49.468;11.200;2023-02-15T05:16:43;-0.70;99.90
8008;DHT22;4049;49.468;11.200;2023-02-15T05:19:10;-0.80;99.90
8008;DHT22;4049;49.468;11.200;2023-02-15T05:21:36;-0.80;99.90
8008;DHT22;4049;49.468;11.200;2023-02-15T05:24:04;-0.80;99.90
8008;DHT22;4049;49.468;11.200;2023-02-15T05:26:52;-0.80;99.90
8008;DHT22;4049;49.468;11.200;2023-02-15T05:29:36;-0.80;99.90
8008;DHT22;4049;49.468;11.200;2023-02-15T05:32:03;-0.80;99.90
8008;DHT22;4049;49.468;11.200;2023-02-15T05:34:30;-0.80;99.90
8008;DHT22;4049;49.468;11.200;2023-02-15T05:36:57;-0.80;99.90
8008;DHT22;4049;49.468;11.200;2023-02-15T05:39:24;-0.80;99.90
8008;DHT22;4049;49.468;11.200;2023-02-15T05:41:52;-0.80;99.90
8008;DHT22;4049;49.468;11.200;2023-02-15T05:44:19;-0.80;99.90
8008;DHT22;4049;49.468;11.200;2023-02-15T05:46:45;-0.80;99.90
8008;DHT22;4049;49.468;11.200;2023-02-15T05:49:12;-0.90;99.90
8008;DHT22;4049;49.468;11.200;2023-02-15T05:51:39;-0.90;99.90
8008;DHT22;4049;49.468;11.200;2023-02-15T05:54:06;-0.90;99.90
8008;DHT22;4049;49.468;11.200;2023-02-15T05:56:33;-0.90;99.90
8008;DHT22;4049;49.468;11.200;2023-02-15T05:59:04;-0.90;99.90
8008;DHT22;4049;49.468;11.200;2023-02-15T06:01:30;-0.90;99.90
8008;DHT22;4049;49.468;11.200;2023-02-15T06:03:57;-0.90;99.90
8008;DHT22;4049;49.468;11.200;2023-02-15T06:06:24;-0.90;99.90
8008;DHT22;4049;49.468;11.200;2023-02-15T06:08:51;-0.90;99.90
8008;DHT22;4049;49.468;11.200;2023-02-15T06:11:18;-0.90;99.90
8008;DHT22;4049;49.468;11.200;2023-02-15T06:13:44;-1.00;99.90
8008;DHT22;4049;49.468;11.200;2023-02-15T06:16:12;-0.90;99.90
8008;DHT22;4049;49.468;11.200;2023-02-15T06:18:41;-1.00;99.90
8008;DHT22;4049;49.468;11.200;2023-02-15T06:21:08;-1.00;99.90
8008;DHT22;4049;49.468;11.200;2023-02-15T06:23:35;-1.00;99.90
8008;DHT22;4049;49.468;11.200;2023-02-15T06:26:01;-0.90;99.90
8008;DHT22;4049;49.468;11.200;2023-02-15T06:28:28;-1.00;99.90
8008;DHT22;4049;49.468;11.200;2023-02-15T06:30:55;-1.00;99.90
8008;DHT22;4049;49.468;11.200;2023-02-15T06:33:23;-1.00;99.90
8008;DHT22;4049;49.468;11.200;2023-02-15T06:35:50;-1.00;99.90
8008;DHT22;4049;49.468;11.200;2023-02-15T06:38:18;-1.00;99.90
8008;DHT22;4049;49.468;11.200;2023-02-15T06:40:46;-0.90;99.90
8008;DHT22;4049;49.468;11.200;2023-02-15T06:43:13;-1.00;99.90
8008;DHT22;4049;49.468;11.200;2023-02-15T06:45:41;-1.00;99.90
8008;DHT22;4049;49.468;11.200;2023-02-15T06:48:08;-1.00;99.90
8008;DHT22;4049;49.468;11.200;2023-02-15T06:50:38;-1.00;99.90
8008;DHT22;4049;49.468;11.200;2023-02-15T06:53:05;-0.90;99.90
8008;DHT22;4049;49.468;11.200;2023-02-15T06:55:32;-1.00;99.90
8008;DHT22;4049;49.468;11.200;2023-02-15T06:57:58;-1.00;99.90
8008;DHT22;4049;49.468;11.200;2023-02-15T07:00:25;-0.90;99.90
8008;DHT22;4049;49.468;11.200;2023-02-15T07:02:53;-0.90;99.90
8008;DHT22;4049;49.468;11.200;2023-02-15T07:05:21;-1.00;99.90
8008;DHT22;4049;49.468;11.200;2023-02-15T07:07:50;-1.00;99.90
8008;DHT22;4049;49.468;11.200;2023-02-15T07:10:17;-1.00;99.90
8008;DHT22;4049;49.468;11.200;2023-02-15T07:12:44;-1.00;99.90
8008;DHT22;4049;49.468;11.200;2023-02-15T07:15:12;-1.00;99.90
8008;DHT22;4049;49.468;11.200;2023-02-15T07:17:40;-1.00;99.90
8008;DHT22;4049;49.468;11.200;2023-02-15T07:20:09;-1.00;99.90
8008;DHT22;4049;49.468;11.200;2023-02-15T07:22:36;-1.00;99.90
8008;DHT22;4049;49.468;11.200;2023-02-15T07:25:06;-1.00;99.90
8008;DHT22;4049;49.468;11.200;2023-02-15T07:27:34;-1.00;99.90
8008;DHT22;4049;49.468;11.200;2023-02-15T07:30:01;-1.00;99.90
8008;DHT22;4049;49.468;11.200;2023-02-15T07:32:28;-1.00;99.90
8008;DHT22;4049;49.468;11.200;2023-02-15T07:34:56;-1.00;99.90
8008;DHT22;4049;49.468;11.200;2023-02-15T07:37:23;-1.10;99.90
8008;DHT22;4049;49.468;11.200;2023-02-15T07:39:50;-1.10;99.90
8008;DHT22;4049;49.468;11.200;2023-02-15T07:42:18;-1.10;99.90
8008;DHT22;4049;49.468;11.200;2023-02-15T07:44:46;-1.10;99.90
8008;DHT22;4049;49.468;11.200;2023-02-15T07:47:13;-1.10;99.90
8008;DHT22;4049;49.468;11.200;2023-02-15T07:49:40;-1.00;99.90
8008;DHT22;4049;49.468;11.200;2023-02-15T07:52:07;-1.00;99.90
8008;DHT22;4049;49.468;11.200;2023-02-15T07:54:34;-1.00;99.90
8008;DHT22;4049;49.468;11.200;2023-02-15T07:57:01;-0.90;99.90
8008;DHT22;4049;49.468;11.200;2023-02-15T07:59:29;-0.90;99.90
8008;DHT22;4049;49.468;11.200;2023-02-15T08:01:56;-0.80;99.90
8008;DHT22;4049;49.468;11.200;2023-02-15T08:04:23;-0.80;99.90
8008;DHT22;4049;49.468;11.200;2023-02-15T08:06:52;-0.70;99.90
8008;DHT22;4049;49.468;11.200;2023-02-15T08:09:20;-0.70;99.90
8008;DHT22;4049;49.468;11.200;2023-02-15T08:11:47;-0.70;99.90
8008;DHT22;4049;49.468;11.200;2023-02-15T08:14:16;-0.70;99.90
8008;DHT22;4049;49.468;11.200;2023-02-15T08:16:46;-0.80;99.90
8008;DHT22;4049;49.468;11.200;2023-02-15T08:19:15;-0.70;99.90
8008;DHT22;4049;49.468;11.200;2023-02-15T08:21:44;-0.70;99.90
8008;DHT22;4049;49.468;11.200;2023-02-15T08:24:12;-0.60;99.90
8008;DHT22;4049;49.468;11.200;2023-02-15T08:26:41;-0.60;99.90
8008;DHT22;4049;49.468;11.200;2023-02-15T08:29:09;-0.60;99.90
8008;DHT22;4049;49.468;11.200;2023-02-15T08:31:36;-0.60;99.90
8008;DHT22;4049;49.468;11.200;2023-02-15T08:34:05;-0.60;99.90
8008;DHT22;4049;49.468;11.200;2023-02-15T08:36:33;-0.60;99.90
8008;DHT22;4049;49.468;11.200;2023-02-15T08:39:03;-0.70;99.90
8008;DHT22;4049;49.468;11.200;2023-02-15T08:41:31;-0.70;99.90
8008;DHT22;4049;49.468;11.200;2023-02-15T08:44:01;-0.60;99.90
8008;DHT22;4049;49.468;11.200;2023-02-15T08:46:29;-0.60;99.90
8008;DHT22;4049;49.468;11.200;2023-02-15T08:48:57;-0.70;99.90
8008;DHT22;4049;49.468;11.200;2023-02-15T08:51:28;-0.70;99.90
8008;DHT22;4049;49.468;11.200;2023-02-15T08:54:02;-0.60;99.90
8008;DHT22;4049;49.468;11.200;2023-02-15T08:56:32;-0.60;99.90
8008;DHT22;4049;49.468;11.200;2023-02-15T08:58:59;-0.50;99.90
8008;DHT22;4049;49.468;11.200;2023-02-15T09:01:28;-0.50;99.90
8008;DHT22;4049;49.468;11.200;2023-02-15T09:03:57;-0.50;99.90
8008;DHT22;4049;49.468;11.200;2023-02-15T09:06:26;-0.40;99.90
8008;DHT22;4049;49.468;11.200;2023-02-15T09:08:54;-0.30;99.90
8008;DHT22;4049;49.468;11.200;2023-02-15T09:11:23;-0.30;99.90
8008;DHT22;4049;49.468;11.200;2023-02-15T09:13:53;-0.40;99.90
8008;DHT22;4049;49.468;11.200;2023-02-15T09:16:21;-0.30;99.90
8008;DHT22;4049;49.468;11.200;2023-02-15T09:18:48;-0.30;99.90
8008;DHT22;4049;49.468;11.200;2023-02-15T09:21:17;-0.30;99.90
8008;DHT22;4049;49.468;11.200;2023-02-15T09:23:47;-0.20;99.90
8008;DHT22;4049;49.468;11.200;2023-02-15T09:26:16;-0.20;99.90
8008;DHT22;4049;49.468;11.200;2023-02-15T09:28:44;-0.10;99.90
8008;DHT22;4049;49.468;11.200;2023-02-15T09:31:13;-0.10;99.90
8008;DHT22;4049;49.468;11.200;2023-02-15T09:33:41;0.00;99.90
8008;DHT22;4049;49.468;11.200;2023-02-15T09:36:15;0.10;99.90
8008;DHT22;4049;49.468;11.200;2023-02-15T09:38:42;0.20;99.90
8008;DHT22;4049;49.468;11.200;2023-02-15T09:41:30;0.30;99.90
8008;DHT22;4049;49.468;11.200;2023-02-15T09:44:09;0.30;99.90
8008;DHT22;4049;49.468;11.200;2023-02-15T09:46:51;0.40;99.90
8008;DHT22;4049;49.468;11.200;2023-02-15T09:49:31;0.30;99.90
8008;DHT22;4049;49.468;11.200;2023-02-15T09:52:19;0.40;99.90
8008;DHT22;4049;49.468;11.200;2023-02-15T09:55:00;0.40;99.90
8008;DHT22;4049;49.468;11.200;2023-02-15T09:57:36;0.50;99.90
8008;DHT22;4049;49.468;11.200;2023-02-15T10:00:15;0.50;99.90
8008;DHT22;4049;49.468;11.200;2023-02-15T10:03:02;0.50;99.90
8008;DHT22;4049;49.468;11.200;2023-02-15T10:05:38;0.60;99.90
8008;DHT22;4049;49.468;11.200;2023-02-15T10:08:22;0.70;99.90
8008;DHT22;4049;49.468;11.200;2023-02-15T10:11:00;0.80;99.90
8008;DHT22;4049;49.468;11.200;2023-02-15T10:13:58;0.80;99.90
8008;DHT22;4049;49.468;11.200;2023-02-15T10:16:36;0.80;99.90
8008;DHT22;4049;49.468;11.200;2023-02-15T10:19:12;0.90;99.90
8008;DHT22;4049;49.468;11.200;2023-02-15T10:21:53;1.00;99.90
8008;DHT22;4049;49.468;11.200;2023-02-15T10:24:44;1.10;99.90
8008;DHT22;4049;49.468;11.200;2023-02-15T10:27:18;1.10;99.90
8008;DHT22;4049;49.468;11.200;2023-02-15T10:29:52;1.20;99.90
8008;DHT22;4049;49.468;11.200;2023-02-15T10:32:23;1.30;99.90
8008;DHT22;4049;49.468;11.200;2023-02-15T10:34:54;1.30;99.90
8008;DHT22;4049;49.468;11.200;2023-02-15T10:37:46;1.40;99.90
8008;DHT22;4049;49.468;11.200;2023-02-15T10:40:25;1.40;99.90
8008;DHT22;4049;49.468;11.200;2023-02-15T10:43:06;1.50;99.90
8008;DHT22;4049;49.468;11.200;2023-02-15T10:45:46;1.50;99.90
8008;DHT22;4049;49.468;11.200;2023-02-15T10:51:16;1.60;99.90
8008;DHT22;4049;49.468;11.200;2023-02-15T10:54:05;1.60;99.90
8008;DHT22;4049;49.468;11.200;2023-02-15T10:56:38;1.70;99.90
8008;DHT22;4049;49.468;11.200;2023-02-15T10:59:30;1.70;99.90
8008;DHT22;4049;49.468;11.200;2023-02-15T11:02:04;1.80;99.90
8008;DHT22;4049;49.468;11.200;2023-02-15T11:04:51;1.80;99.90
8008;DHT22;4049;49.468;11.200;2023-02-15T11:07:23;1.80;99.90
8008;DHT22;4049;49.468;11.200;2023-02-15T11:09:53;1.80;99.90
8008;DHT22;4049;49.468;11.200;2023-02-15T11:12:24;1.90;99.90
8008;DHT22;4049;49.468;11.200;2023-02-15T11:14:58;2.00;99.90
8008;DHT22;4049;49.468;11.200;2023-02-15T11:17:35;2.20;99.90
8008;DHT22;4049;49.468;11.200;2023-02-15T11:20:14;2.40;99.90
8008;DHT22;4049;49.468;11.200;2023-02-15T11:22:47;2.70;99.90
8008;DHT22;4049;49.468;11.200;2023-02-15T11:25:18;2.90;99.90
8008;DHT22;4049;49.468;11.200;2023-02-15T11:27:48;3.20;99.90
8008;DHT22;4049;49.468;11.200;2023-02-15T11:30:20;3.50;99.90
8008;DHT22;4049;49.468;11.200;2023-02-15T11:32:51;3.80;99.90
8008;DHT22;4049;49.468;11.200;2023-02-15T11:35:24;4.10;99.90
8008;DHT22;4049;49.468;11.200;2023-02-15T11:37:57;4.30;99.90
8008;DHT22;4049;49.468;11.200;2023-02-15T11:40:28;4.50;99.90
8008;DHT22;4049;49.468;11.200;2023-02-15T11:42:56;4.60;99.90
8008;DHT22;4049;49.468;11.200;2023-02-15T11:45:28;4.80;99.90
8008;DHT22;4049;49.468;11.200;2023-02-15T11:47:57;5.00;99.90
8008;DHT22;4049;49.468;11.200;2023-02-15T11:50:26;5.20;99.90
8008;DHT22;4049;49.468;11.200;2023-02-15T11:52:57;5.40;99.90
8008;DHT22;4049;49.468;11.200;2023-02-15T11:55:25;5.50;99.90
8008;DHT22;4049;49.468;11.200;2023-02-15T11:57:56;5.70;99.90
8008;DHT22;4049;49.468;11.200;2023-02-15T12:00:31;5.80;99.90
8008;DHT22;4049;49.468;11.200;2023-02-15T12:03:07;5.70;99.90
8008;DHT22;4049;49.468;11.200;2023-02-15T12:05:37;5.70;99.90
8008;DHT22;4049;49.468;11.200;2023-02-15T12:08:14;5.80;99.90
8008;DHT22;4049;49.468;11.200;2023-02-15T12:10:58;5.90;99.90
8008;DHT22;4049;49.468;11.200;2023-02-15T12:13:27;6.00;99.90
8008;DHT22;4049;49.468;11.200;2023-02-15T12:15:56;6.20;99.90
8008;DHT22;4049;49.468;11.200;2023-02-15T12:18:36;6.50;99.90
8008;DHT22;4049;49.468;11.200;2023-02-15T12:21:07;6.60;99.90
8008;DHT22;4049;49.468;11.200;2023-02-15T12:23:41;6.70;99.90
8008;DHT22;4049;49.468;11.200;2023-02-15T12:26:09;6.70;99.90
8008;DHT22;4049;49.468;11.200;2023-02-15T12:28:39;6.70;99.90
8008;DHT22;4049;49.468;11.200;2023-02-15T12:31:17;6.80;99.90
8008;DHT22;4049;49.468;11.200;2023-02-15T12:33:47;6.80;99.90
8008;DHT22;4049;49.468;11.200;2023-02-15T12:36:18;6.70;99.90
8008;DHT22;4049;49.468;11.200;2023-02-15T12:39:02;6.50;99.90
8008;DHT22;4049;49.468;11.200;2023-02-15T12:41:30;6.40;99.90
8008;DHT22;4049;49.468;11.200;2023-02-15T12:44:05;6.40;99.90
8008;DHT22;4049;49.468;11.200;2023-02-15T12:46:33;6.20;99.90
8008;DHT22;4049;49.468;11.200;2023-02-15T12:49:17;6.20;99.90
8008;DHT22;4049;49.468;11.200;2023-02-15T12:51:45;6.20;99.90
8008;DHT22;4049;49.468;11.200;2023-02-15T12:54:20;6.20;99.90
8008;DHT22;4049;49.468;11.200;2023-02-15T12:56:52;6.20;99.90
8008;DHT22;4049;49.468;11.200;2023-02-15T12:59:19;6.20;99.90
8008;DHT22;4049;49.468;11.200;2023-02-15T13:01:47;6.10;99.90
8008;DHT22;4049;49.468;11.200;2023-02-15T13:04:22;6.10;99.90
8008;DHT22;4049;49.468;11.200;2023-02-15T13:06:51;6.10;99.90
8008;DHT22;4049;49.468;11.200;2023-02-15T13:09:20;6.10;99.90
8008;DHT22;4049;49.468;11.200;2023-02-15T13:11:51;6.20;99.90
8008;DHT22;4049;49.468;11.200;2023-02-15T13:14:20;6.10;99.90
8008;DHT22;4049;49.468;11.200;2023-02-15T13:16:50;6.10;99.90
8008;DHT22;4049;49.468;11.200;2023-02-15T13:19:22;6.00;99.90
8008;DHT22;4049;49.468;11.200;2023-02-15T13:21:54;5.90;99.90
8008;DHT22;4049;49.468;11.200;2023-02-15T13:24:24;5.80;99.90
8008;DHT22;4049;49.468;11.200;2023-02-15T13:26:52;5.90;99.90
8008;DHT22;4049;49.468;11.200;2023-02-15T13:29:23;5.90;99.90
8008;DHT22;4049;49.468;11.200;2023-02-15T13:31:52;6.00;99.90
8008;DHT22;4049;49.468;11.200;2023-02-15T13:34:25;6.00;99.90
8008;DHT22;4049;49.468;11.200;2023-02-15T13:37:00;6.10;99.90
8008;DHT22;4049;49.468;11.200;2023-02-15T13:39:34;6.10;99.90
8008;DHT22;4049;49.468;11.200;2023-02-15T13:42:15;6.20;99.90
8008;DHT22;4049;49.468;11.200;2023-02-15T13:44:58;6.30;99.90
8008;DHT22;4049;49.468;11.200;2023-02-15T13:47:32;6.20;99.90
8008;DHT22;4049;49.468;11.200;2023-02-15T13:50:16;6.30;99.90
8008;DHT22;4049;49.468;11.200;2023-02-15T13:52:50;6.20;99.90
8008;DHT22;4049;49.468;11.200;2023-02-15T13:55:30;6.10;99.90
8008;DHT22;4049;49.468;11.200;2023-02-15T13:58:14;6.10;99.90
8008;DHT22;4049;49.468;11.200;2023-02-15T14:00:48;6.30;99.90
8008;DHT22;4049;49.468;11.200;2023-02-15T14:06:50;6.50;99.90
8008;DHT22;4049;49.468;11.200;2023-02-15T14:09:32;6.70;99.90
8008;DHT22;4049;49.468;11.200;2023-02-15T14:12:22;6.90;99.90
8008;DHT22;4049;49.468;11.200;2023-02-15T14:15:10;6.90;99.90
8008;DHT22;4049;49.468;11.200;2023-02-15T14:17:47;7.00;99.90
8008;DHT22;4049;49.468;11.200;2023-02-15T14:20:21;7.10;99.90
8008;DHT22;4049;49.468;11.200;2023-02-15T14:23:00;7.20;99.90
8008;DHT22;4049;49.468;11.200;2023-02-15T14:25:37;7.20;99.90
8008;DHT22;4049;49.468;11.200;2023-02-15T14:28:09;7.20;99.90
8008;DHT22;4049;49.468;11.200;2023-02-15T14:30:39;7.60;99.90
8008;DHT22;4049;49.468;11.200;2023-02-15T14:33:08;7.70;99.90
8008;DHT22;4049;49.468;11.200;2023-02-15T14:35:35;7.80;99.90
8008;DHT22;4049;49.468;11.200;2023-02-15T14:38:12;8.00;99.90
8008;DHT22;4049;49.468;11.200;2023-02-15T14:40:47;8.10;99.90
8008;DHT22;4049;49.468;11.200;2023-02-15T14:43:40;8.20;99.90
8008;DHT22;4049;49.468;11.200;2023-02-15T14:46:14;8.40;99.90
8008;DHT22;4049;49.468;11.200;2023-02-15T14:48:45;8.50;99.90
8008;DHT22;4049;49.468;11.200;2023-02-15T14:54:59;8.60;99.90
8008;DHT22;4049;49.468;11.200;2023-02-15T14:57:31;8.60;99.90
8008;DHT22;4049;49.468;11.200;2023-02-15T15:00:00;8.50;99.90
8008;DHT22;4049;49.468;11.200;2023-02-15T15:02:43;8.50;99.90
8008;DHT22;4049;49.468;11.200;2023-02-15T15:05:17;8.60;99.90
8008;DHT22;4049;49.468;11.200;2023-02-15T15:07:47;8.60;99.90
8008;DHT22;4049;49.468;11.200;2023-02-15T15:10:40;8.60;99.90
8008;DHT22;4049;49.468;11.200;2023-02-15T15:13:36;8.30;99.90
8008;DHT22;4049;49.468;11.200;2023-02-15T15:19:10;8.20;99.90
8008;DHT22;4049;49.468;11.200;2023-02-15T15:21:57;8.20;99.90
8008;DHT22;4049;49.468;11.200;2023-02-15T15:24:52;7.90;99.90
8008;DHT22;4049;49.468;11.200;2023-02-15T15:27:43;7.70;99.90
8008;DHT22;4049;49.468;11.200;2023-02-15T15:33:59;9.00;99.90
8008;DHT22;4049;49.468;11.200;2023-02-15T15:39:59;11.00;95.70
8008;DHT22;4049;49.468;11.200;2023-02-15T15:42:49;10.60;96.80
8008;DHT22;4049;49.468;11.200;2023-02-15T15:45:41;10.10;95.20
8008;DHT22;4049;49.468;11.200;2023-02-15T15:48:28;8.80;99.50
8008;DHT22;4049;49.468;11.200;2023-02-15T15:50:58;7.70;99.90
8008;DHT22;4049;49.468;11.200;2023-02-15T15:53:28;7.10;99.90
8008;DHT22;4049;49.468;11.200;2023-02-15T15:56:00;6.70;99.90
8008;DHT22;4049;49.468;11.200;2023-02-15T15:58:29;6.50;99.90
8008;DHT22;4049;49.468;11.200;2023-02-15T16:01:00;6.20;99.90
8008;DHT22;4049;49.468;11.200;2023-02-15T16:03:29;5.90;99.90
8008;DHT22;4049;49.468;11.200;2023-02-15T16:05:56;5.70;99.90
8008;DHT22;4049;49.468;11.200;2023-02-15T16:08:27;5.50;99.90
8008;DHT22;4049;49.468;11.200;2023-02-15T16:10:54;5.40;99.90
8008;DHT22;4049;49.468;11.200;2023-02-15T16:13:21;5.20;99.90
8008;DHT22;4049;49.468;11.200;2023-02-15T16:15:52;5.20;99.90
8008;DHT22;4049;49.468;11.200;2023-02-15T16:18:22;5.10;99.90
8008;DHT22;4049;49.468;11.200;2023-02-15T16:20:52;5.00;99.90
8008;DHT22;4049;49.468;11.200;2023-02-15T16:23:59;4.90;99.90
8008;DHT22;4049;49.468;11.200;2023-02-15T16:29:28;4.80;99.90
8008;DHT22;4049;49.468;11.200;2023-02-15T16:32:02;4.60;99.90
8008;DHT22;4049;49.468;11.200;2023-02-15T16:34:29;4.50;99.90
8008;DHT22;4049;49.468;11.200;2023-02-15T16:37:14;4.40;99.90
8008;DHT22;4049;49.468;11.200;2023-02-15T16:39:42;4.30;99.90
8008;DHT22;4049;49.468;11.200;2023-02-15T16:42:10;4.20;99.90
8008;DHT22;4049;49.468;11.200;2023-02-15T16:44:37;4.10;99.90
8008;DHT22;4049;49.468;11.200;2023-02-15T16:47:12;4.10;99.90
8008;DHT22;4049;49.468;11.200;2023-02-15T16:49:43;4.00;99.90
8008;DHT22;4049;49.468;11.200;2023-02-15T16:52:15;3.90;99.90
8008;DHT22;4049;49.468;11.200;2023-02-15T16:54:45;3.90;99.90
8008;DHT22;4049;49.468;11.200;2023-02-15T16:57:18;3.80;99.90